Oliver Springs, Tennessee
Current Conditions -  °F | °C
As of 5:53 AM on Friday 31 Oct 2014 (Local Time) from KOQT Reporting Station
Broken Clouds Broken Clouds  
Wind Chill: 40°   Ceiling: 12000
Heat Index: 40°   Visibility: 10mi
Dew Point: 38°   Wind: 0mph
Humidity: 93%   Direction: NA
Pressure: 29.99"   Gusts: NA
Location:  36.04°N, 84.34°W
Report Text: KOQT 310953Z AUTO 00000KT 10SM SCT100 BKN120 04/03 A2999 RMK AO2 SLP159 T00440033
Loading
Personal Weather Stations






























Interactive Weather Map New forecast layout! Learn more

10-Day Weather Forecast

Advertisements
Track Severe Weather on mobile